Time;durP1;ratioP1;P1;durP2;ratioP2;P2;SDS_P1;SDS_P2;PMS_P1;PMS_P2;Temp;Humidity;BMP_temperature;BMP_pressure;BME280_temperature;BME280_humidity;BME280_pressure;Samples;Min_cycle;Max_cycle;Signal;HPM_P1;HPM_P2
2022/09/18 00:02:04;;;;;;;0.43;0.20;;;;;;;12.51;70.15;94177.84;4978388;28;20037;-87
2022/09/18 00:04:29;;;;;;;0.20;0.20;;;;;;;12.71;68.54;94176.00;4962396;28;20034;-87
2022/09/18 00:06:55;;;;;;;0.63;0.30;;;;;;;12.67;68.68;94183.66;4978673;28;20333;-88
2022/09/18 00:09:20;;;;;;;0.63;0.20;;;;;;;12.66;69.75;94179.47;4962370;28;20035;-87
2022/09/18 00:11:48;;;;;;;3.35;0.30;;;;;;;12.87;67.59;94181.81;4978359;28;20039;-86
2022/09/18 00:14:17;;;;;;;0.77;0.30;;;;;;;12.68;66.54;94190.47;4961800;28;20130;-87
2022/09/18 00:16:43;;;;;;;0.77;0.40;;;;;;;12.57;67.34;94187.22;4962182;28;20031;-87
2022/09/18 00:19:09;;;;;;;0.88;0.45;;;;;;;12.48;65.98;94188.94;4977840;28;20400;-87
2022/09/18 00:21:36;;;;;;;3.08;0.20;;;;;;;12.72;67.38;94180.97;4977983;28;20468;-87
2022/09/18 00:24:03;;;;;;;0.50;0.20;;;;;;;12.66;69.30;94189.97;4962193;28;20333;-87
2022/09/18 00:26:29;;;;;;;0.30;0.30;;;;;;;12.71;66.42;94191.75;4962265;28;20042;-88
2022/09/18 00:28:56;;;;;;;0.80;0.40;;;;;;;12.84;63.10;94193.69;4977740;28;20031;-87
2022/09/18 00:31:28;;;;;;;0.20;0.20;;;;;;;12.44;68.68;94191.34;4962140;28;20436;-87
2022/09/18 00:33:54;;;;;;;1.10;0.30;;;;;;;12.47;64.88;94189.97;4978183;28;20030;-86
2022/09/18 00:36:21;;;;;;;2.30;0.30;;;;;;;12.52;62.26;94183.88;4977360;28;20360;-87
2022/09/18 00:38:46;;;;;;;0.65;0.28;;;;;;;12.59;64.39;94177.19;4977605;28;20027;-87
2022/09/18 00:41:18;;;;;;;1.55;0.43;;;;;;;12.87;61.70;94185.22;4962057;28;20447;-87
2022/09/18 00:43:44;;;;;;;1.13;0.30;;;;;;;12.95;59.49;94183.03;4977318;28;20027;-87
2022/09/18 00:46:21;;;;;;;1.23;0.32;;;;;;;12.98;58.91;94171.94;4961795;28;20037;-87
2022/09/18 00:48:59;;;;;;;1.38;0.40;;;;;;;13.10;56.38;94176.72;4961857;28;20030;-88
2022/09/18 00:51:24;;;;;;;0.75;0.20;;;;;;;13.37;55.37;94185.78;4961604;28;20031;-88
2022/09/18 00:54:16;;;;;;;1.98;0.50;;;;;;;13.50;54.16;94168.50;4961686;28;20041;-87
2022/09/18 00:56:43;;;;;;;2.95;0.30;;;;;;;13.56;54.37;94169.94;4970032;28;20038;-87
2022/09/18 00:59:09;;;;;;;0.20;0.20;;;;;;;13.57;53.30;94176.78;4961387;28;20033;-88
2022/09/18 01:01:35;;;;;;;0.25;0.20;;;;;;;13.56;52.61;94175.22;4961453;28;20078;-89
2022/09/18 01:04:02;;;;;;;1.55;0.40;;;;;;;13.64;52.79;94169.28;4961176;28;20376;-88
2022/09/18 01:06:53;;;;;;;1.20;0.20;;;;;;;13.65;51.88;94175.31;4961675;28;20023;-88
2022/09/18 01:09:33;;;;;;;0.17;0.17;;;;;;;13.82;51.48;94172.88;4911569;29;20072;-87
2022/09/18 01:12:22;;;;;;;0.10;0.10;;;;;;;13.93;50.87;94173.50;4960792;28;20031;-87
2022/09/18 01:14:58;;;;;;;0.38;0.22;;;;;;;13.86;50.65;94167.84;4977952;28;20034;-88
2022/09/18 01:18:09;;;;;;;0.73;0.20;;;;;;;13.81;51.21;94170.56;4961345;28;20332;-88
2022/09/18 01:20:53;;;;;;;0.73;0.20;;;;;;;13.77;50.87;94161.66;4961074;28;20440;-88
2022/09/18 01:23:44;;;;;;;4.47;0.20;;;;;;;13.73;51.30;94163.34;4960323;28;20030;-88
2022/09/18 01:26:50;;;;;;;0.40;0.30;;;;;;;13.51;51.19;94162.94;4960566;28;20105;-87
2022/09/18 01:29:38;;;;;;;0.65;0.43;;;;;;;13.81;50.24;94166.06;4960576;28;20121;-88
2022/09/18 01:32:15;;;;;;;0.55;0.30;;;;;;;13.95;49.66;94160.81;4961247;28;20034;-89
2022/09/18 01:34:48;;;;;;;2.08;0.30;;;;;;;13.91;49.76;94162.47;4960961;28;20030;-87
2022/09/18 01:37:39;;;;;;;0.20;0.20;;;;;;;13.76;50.14;94171.44;4960719;28;20081;-88
2022/09/18 01:40:22;;;;;;;3.20;0.38;;;;;;;13.56;51.48;94177.84;4945178;28;20433;-87
2022/09/18 01:42:49;;;;;;;3.83;0.30;;;;;;;13.63;52.13;94178.25;4978068;28;20029;-87
2022/09/18 01:45:18;;;;;;;0.40;0.25;;;;;;;13.33;52.29;94172.41;4960489;28;20034;-89
2022/09/18 01:47:54;;;;;;;0.32;0.30;;;;;;;13.64;50.91;94171.13;4961037;28;20034;-86
2022/09/18 01:50:20;;;;;;;0.75;0.30;;;;;;;13.29;51.62;94176.69;4960590;28;20441;-88
2022/09/18 01:52:55;;;;;;;1.27;0.20;;;;;;;13.51;51.16;94172.69;4960774;28;20102;-87
2022/09/18 01:55:25;;;;;;;0.20;0.20;;;;;;;13.64;51.21;94171.94;4944966;28;20030;-87
2022/09/18 01:58:01;;;;;;;0.73;0.20;;;;;;;13.65;51.12;94177.97;4960225;28;20027;-87
2022/09/18 02:00:29;;;;;;;0.77;0.30;;;;;;;13.69;50.44;94166.56;4960897;28;20464;-88
2022/09/18 02:03:02;;;;;;;2.15;0.20;;;;;;;13.73;49.88;94171.22;4945015;28;20026;-88
2022/09/18 02:05:32;;;;;;;0.20;0.20;;;;;;;13.78;49.49;94168.53;4944764;28;20425;-88
2022/09/18 02:08:10;;;;;;;1.45;0.40;;;;;;;13.76;49.73;94174.06;4960673;28;20129;-88
2022/09/18 02:10:41;;;;;;;0.32;0.20;;;;;;;13.70;50.18;94176.00;4960621;28;20122;-88
2022/09/18 02:13:08;;;;;;;0.35;0.20;;;;;;;13.55;51.00;94182.31;4960374;28;20041;-88
2022/09/18 02:15:36;;;;;;;1.35;0.30;;;;;;;13.56;51.07;94175.22;4962536;28;20081;-87
2022/09/18 02:18:06;;;;;;;0.32;0.20;;;;;;;13.34;50.50;94181.09;4964172;28;20035;-87
2022/09/18 02:20:33;;;;;;;3.25;0.40;;;;;;;13.38;50.83;94187.31;4964365;28;20031;-87
2022/09/18 02:23:04;;;;;;;0.47;0.30;;;;;;;12.98;51.50;94188.50;4948328;28;20129;-88
2022/09/18 02:25:34;;;;;;;0.40;0.30;;;;;;;13.04;52.16;94189.16;4964242;28;20031;-89
2022/09/18 02:28:00;;;;;;;0.68;0.20;;;;;;;13.00;52.19;94188.19;4964417;28;20026;-88
2022/09/18 02:30:26;;;;;;;2.03;0.15;;;;;;;13.11;52.12;94183.53;4964160;28;20424;-88
2022/09/18 02:32:54;;;;;;;0.73;0.20;;;;;;;12.91;52.17;94187.28;4947976;28;20085;-88
2022/09/18 02:35:20;;;;;;;0.88;0.50;;;;;;;13.03;51.30;94179.72;4963858;28;20057;-88
2022/09/18 02:37:57;;;;;;;5.07;0.20;;;;;;;12.93;50.85;94179.91;4947750;28;20038;-88
2022/09/18 02:40:52;;;;;;;0.63;0.30;;;;;;;13.13;50.14;94176.19;4963907;28;20027;-87
2022/09/18 02:43:46;;;;;;;0.55;0.38;;;;;;;13.22;49.96;94173.66;4961586;28;20089;-87
2022/09/18 02:46:31;;;;;;;0.85;0.20;;;;;;;13.10;49.86;94172.25;4963709;28;20031;-88
2022/09/18 02:49:21;;;;;;;0.17;0.17;;;;;;;13.04;50.14;94175.25;4963498;28;20033;-88
2022/09/18 02:52:06;;;;;;;0.70;0.35;;;;;;;12.81;50.77;94183.75;4980463;28;20086;-87
2022/09/18 02:54:37;;;;;;;0.47;0.30;;;;;;;12.97;50.03;94186.13;4963708;28;20332;-88
2022/09/18 02:57:09;;;;;;;0.20;0.20;;;;;;;12.78;49.94;94183.53;4980490;28;20113;-88
2022/09/18 02:59:42;;;;;;;0.88;0.40;;;;;;;13.24;49.50;94174.16;4963331;28;20031;-88
2022/09/18 03:02:08;;;;;;;0.38;0.30;;;;;;;13.06;49.02;94183.63;4947453;28;20113;-89
2022/09/18 03:04:33;;;;;;;0.40;0.30;;;;;;;12.91;48.93;94182.81;4963298;28;20414;-88
2022/09/18 03:06:59;;;;;;;0.30;0.30;;;;;;;12.87;49.32;94187.84;4963214;28;20038;-87
2022/09/18 03:09:24;;;;;;;3.33;0.30;;;;;;;13.11;49.58;94191.44;4963125;28;20373;-87
2022/09/18 03:11:50;;;;;;;1.02;0.40;;;;;;;13.30;49.41;94186.16;4963528;28;20030;-88
2022/09/18 03:14:15;;;;;;;0.30;0.22;;;;;;;13.22;47.62;94187.59;4947385;28;20022;-87
2022/09/18 03:16:41;;;;;;;0.60;0.30;;;;;;;13.47;47.27;94195.38;4962891;28;20030;-88
2022/09/18 03:19:06;;;;;;;0.47;0.30;;;;;;;13.47;47.95;94193.53;4963161;28;20065;-87
2022/09/18 03:21:32;;;;;;;0.47;0.40;;;;;;;13.31;47.92;94189.56;4963292;28;20037;-88
2022/09/18 03:23:57;;;;;;;0.75;0.40;;;;;;;13.35;48.33;94187.91;4963008;28;20027;-86
2022/09/18 03:26:23;;;;;;;0.50;0.35;;;;;;;13.23;48.07;94194.41;4962571;28;20041;-87
2022/09/18 03:28:48;;;;;;;1.75;0.40;;;;;;;13.19;48.45;94192.63;4963147;28;20444;-88
2022/09/18 03:31:14;;;;;;;0.50;0.40;;;;;;;13.03;49.73;94187.63;4963081;28;20104;-88
2022/09/18 03:33:39;;;;;;;0.50;0.30;;;;;;;13.00;49.57;94191.63;4946807;28;20034;-88
2022/09/18 03:36:05;;;;;;;0.20;0.20;;;;;;;12.96;49.88;94187.97;4962958;28;20033;-88
2022/09/18 03:38:36;;;;;;;0.28;0.28;;;;;;;13.00;47.92;94188.19;4962775;28;20030;-88
2022/09/18 03:41:02;;;;;;;0.40;0.40;;;;;;;13.07;47.58;94191.25;4962777;28;20348;-87
2022/09/18 03:43:28;;;;;;;0.73;0.40;;;;;;;12.83;47.99;94186.06;4963104;28;20019;-88
2022/09/18 03:45:53;;;;;;;0.75;0.40;;;;;;;13.09;47.65;94188.31;4962708;28;20324;-88
2022/09/18 03:48:19;;;;;;;0.65;0.30;;;;;;;13.23;46.25;94188.38;4980054;28;20023;-88
2022/09/18 03:50:47;;;;;;;0.60;0.30;;;;;;;13.13;47.05;94192.72;4962430;28;20081;-88
2022/09/18 03:53:13;;;;;;;0.63;0.40;;;;;;;13.28;46.26;94190.91;4962595;28;20512;-88
2022/09/18 03:55:38;;;;;;;0.85;0.38;;;;;;;13.29;45.89;94188.00;4946647;28;20034;-87
2022/09/18 03:58:03;;;;;;;2.10;0.20;;;;;;;13.17;46.33;94192.16;4946838;28;20027;-87
2022/09/18 04:00:29;;;;;;;0.20;0.20;;;;;;;13.18;46.72;94202.38;4962399;28;20045;-88
2022/09/18 04:02:54;;;;;;;0.43;0.30;;;;;;;12.98;47.43;94208.75;4962515;28;20076;-88
2022/09/18 04:05:20;;;;;;;0.90;0.30;;;;;;;13.17;46.21;94197.41;4979408;28;20023;-87
2022/09/18 04:07:46;;;;;;;0.45;0.25;;;;;;;13.19;45.21;94213.69;4962150;28;20027;-87
2022/09/18 04:10:12;;;;;;;0.30;0.20;;;;;;;13.20;45.25;94204.72;4962246;28;20086;-88
2022/09/18 04:12:37;;;;;;;0.32;0.32;;;;;;;13.33;44.44;94211.09;4962045;28;20034;-88
2022/09/18 04:15:03;;;;;;;0.20;0.20;;;;;;;13.28;44.78;94206.69;4962268;28;20117;-88
2022/09/18 04:17:28;;;;;;;0.55;0.20;;;;;;;13.28;44.67;94209.34;4945644;28;20026;-87
2022/09/18 04:19:54;;;;;;;0.68;0.20;;;;;;;13.31;44.02;94205.34;4962038;28;20341;-87
2022/09/18 04:22:20;;;;;;;0.40;0.20;;;;;;;13.39;43.49;94202.84;4979424;28;20034;-88
2022/09/18 04:24:46;;;;;;;0.65;0.32;;;;;;;13.37;43.86;94215.50;4961805;28;20088;-88
2022/09/18 04:27:12;;;;;;;0.13;0.13;;;;;;;13.36;43.38;94218.41;4978876;28;20121;-87
2022/09/18 04:29:37;;;;;;;2.13;0.20;;;;;;;13.45;43.33;94221.19;4961470;28;20417;-88
2022/09/18 04:32:04;;;;;;;0.40;0.25;;;;;;;13.48;43.58;94216.16;4961374;28;20050;-87
2022/09/18 04:34:31;;;;;;;1.75;0.60;;;;;;;13.08;51.81;94223.56;4945901;28;20031;-87
2022/09/18 04:36:57;;;;;;;0.20;0.20;;;;;;;12.11;55.91;94225.34;4946086;28;20030;-88
2022/09/18 04:39:23;;;;;;;0.22;0.10;;;;;;;11.94;53.73;94223.16;4960923;28;20035;-87
2022/09/18 04:41:49;;;;;;;0.32;0.30;;;;;;;11.96;52.45;94223.66;4978986;28;20107;-87
2022/09/18 04:44:14;;;;;;;9.15;0.65;;;;;;;11.95;54.12;94219.47;4945678;28;20027;-87
2022/09/18 04:46:40;;;;;;;0.40;0.20;;;;;;;11.93;49.05;94224.22;4956632;28;20373;-88
2022/09/18 04:49:05;;;;;;;0.47;0.38;;;;;;;12.11;49.71;94232.44;4977661;28;20114;-87
2022/09/18 04:51:31;;;;;;;0.43;0.20;;;;;;;12.37;47.58;94229.53;4961382;28;20030;-88
2022/09/18 04:53:56;;;;;;;0.50;0.30;;;;;;;12.53;46.98;94238.78;4961312;28;20077;-87
2022/09/18 04:56:21;;;;;;;1.52;0.40;;;;;;;12.65;46.28;94238.38;4977282;28;20034;-87
2022/09/18 04:58:47;;;;;;;0.47;0.35;;;;;;;12.66;46.46;94237.28;4978387;28;20094;-87
2022/09/18 05:01:13;;;;;;;0.52;0.30;;;;;;;12.85;45.79;94239.94;4977633;28;20122;-88
2022/09/18 05:03:38;;;;;;;0.35;0.20;;;;;;;12.81;45.76;94241.59;4961379;28;20026;-87
2022/09/18 05:06:04;;;;;;;0.60;0.40;;;;;;;12.80;46.16;94241.84;4961171;28;20046;-88
2022/09/18 05:08:30;;;;;;;0.60;0.20;;;;;;;12.92;45.25;94251.97;4961275;28;20416;-88
2022/09/18 05:10:55;;;;;;;0.50;0.20;;;;;;;13.00;45.07;94252.09;4961130;28;20417;-87
2022/09/18 05:13:21;;;;;;;0.98;0.40;;;;;;;12.95;44.68;94257.41;4977035;28;20037;-88
2022/09/18 05:15:46;;;;;;;1.30;0.20;;;;;;;13.14;44.45;94256.66;4961008;28;20352;-87
2022/09/18 05:18:12;;;;;;;2.28;0.40;;;;;;;13.12;43.91;94261.38;4961191;28;20031;-87
2022/09/18 05:20:38;;;;;;;0.43;0.20;;;;;;;13.24;43.43;94261.72;4976986;28;20031;-88
2022/09/18 05:23:03;;;;;;;0.50;0.30;;;;;;;13.41;42.82;94255.97;4960938;28;20094;-88
2022/09/18 05:25:29;;;;;;;0.20;0.20;;;;;;;13.40;42.66;94258.88;4961117;28;20043;-87
2022/09/18 05:27:57;;;;;;;0.15;0.10;;;;;;;13.71;42.89;94253.94;4961103;28;20424;-87
2022/09/18 05:30:23;;;;;;;2.08;0.35;;;;;;;13.58;41.96;94262.56;4976853;28;20063;-86
2022/09/18 05:33:03;;;;;;;0.85;0.35;;;;;;;13.84;41.43;94267.41;4976612;28;20027;-88
2022/09/18 05:35:30;;;;;;;1.20;0.57;;;;;;;13.83;41.51;94268.47;4960707;28;20038;-87
2022/09/18 05:37:56;;;;;;;0.50;0.40;;;;;;;13.90;41.26;94271.50;4944735;28;20088;-88
2022/09/18 05:40:24;;;;;;;0.10;0.10;;;;;;;13.99;41.76;94266.38;4960578;28;20030;-88
2022/09/18 05:42:51;;;;;;;0.38;0.30;;;;;;;14.04;41.68;94276.00;4975135;28;20023;-87
2022/09/18 05:45:17;;;;;;;1.30;0.30;;;;;;;14.23;40.80;94275.94;4960993;28;20027;-88
2022/09/18 05:48:04;;;;;;;0.32;0.30;;;;;;;14.49;40.40;94272.81;4945072;28;20568;-88
2022/09/18 05:50:31;;;;;;;0.40;0.30;;;;;;;14.44;41.02;94271.06;4962625;28;20552;-88
2022/09/18 05:53:04;;;;;;;0.70;0.30;;;;;;;14.65;40.70;94270.66;4948784;28;20037;-87
2022/09/18 05:55:31;;;;;;;0.38;0.30;;;;;;;14.58;39.89;94265.78;4964838;28;20037;-87
2022/09/18 05:57:57;;;;;;;0.75;0.40;;;;;;;14.70;42.54;94273.19;4964227;28;20348;-88
2022/09/18 06:00:24;;;;;;;2.17;0.30;;;;;;;14.85;41.71;94274.78;4948612;28;20031;-85
2022/09/18 06:02:59;;;;;;;0.22;0.10;;;;;;;14.80;41.26;94278.28;4948729;28;20033;-86
2022/09/18 06:05:25;;;;;;;2.65;0.30;;;;;;;14.61;49.73;94275.75;4964670;28;20035;-86
2022/09/18 06:07:51;;;;;;;0.40;0.20;;;;;;;14.67;44.93;94285.09;4964275;28;20145;-85
2022/09/18 06:10:17;;;;;;;0.57;0.40;;;;;;;14.95;50.43;94279.03;4948385;28;20129;-85
2022/09/18 06:12:43;;;;;;;2.55;0.40;;;;;;;14.82;50.00;94286.69;4948336;28;20045;-85
2022/09/18 06:15:09;;;;;;;0.70;0.30;;;;;;;14.65;49.82;94281.97;4964028;28;20034;-85
2022/09/18 06:17:35;;;;;;;0.30;0.20;;;;;;;14.95;53.65;94282.44;4963881;28;20093;-86
2022/09/18 06:20:01;;;;;;;0.35;0.30;;;;;;;14.80;53.80;94286.22;4964210;28;20054;-86
2022/09/18 06:22:27;;;;;;;2.45;0.22;;;;;;;14.99;52.99;94290.56;4947886;28;20484;-84
2022/09/18 06:24:52;;;;;;;3.72;0.63;;;;;;;14.82;72.42;94285.91;4960487;29;20055;-85
2022/09/18 06:27:17;;;;;;;3.17;0.50;;;;;;;15.09;59.70;94294.84;4970139;28;20050;-85
2022/09/18 06:29:43;;;;;;;0.45;0.20;;;;;;;15.08;53.15;94294.06;4963615;28;20035;-85
2022/09/18 06:32:09;;;;;;;2.38;0.32;;;;;;;15.30;53.03;94297.03;4963648;28;20443;-84
2022/09/18 06:34:34;;;;;;;0.68;0.38;;;;;;;15.05;43.91;94294.63;4980680;28;20034;-85
2022/09/18 06:37:00;;;;;;;0.50;0.28;;;;;;;15.54;40.97;94297.50;4963523;28;20480;-85
2022/09/18 06:39:25;;;;;;;0.75;0.40;;;;;;;15.90;41.59;94295.91;4980692;28;20031;-85
2022/09/18 06:41:50;;;;;;;0.20;0.20;;;;;;;16.09;38.50;94298.34;4979610;28;20035;-85
2022/09/18 06:44:16;;;;;;;0.77;0.50;;;;;;;15.68;39.64;94302.75;4963455;28;20034;-86
2022/09/18 06:46:41;;;;;;;0.30;0.30;;;;;;;16.00;40.01;94302.03;4963758;28;20322;-85
2022/09/18 06:49:07;;;;;;;0.43;0.30;;;;;;;16.15;38.96;94298.22;4964684;28;20023;-85
2022/09/18 06:51:32;;;;;;;7.00;0.47;;;;;;;16.37;39.02;94302.66;4963693;28;20030;-85
2022/09/18 06:53:57;;;;;;;0.40;0.30;;;;;;;15.85;39.26;94309.22;4947693;28;20031;-85
2022/09/18 06:56:23;;;;;;;0.45;0.30;;;;;;;16.50;40.09;94303.63;4980715;28;20038;-86
2022/09/18 06:58:52;;;;;;;0.63;0.28;;;;;;;17.09;39.65;94300.69;4943523;29;20046;-85
2022/09/18 07:01:17;;;;;;;3.85;0.70;;;;;;;17.32;39.21;94305.84;4927974;29;20082;-86
2022/09/18 07:03:42;;;;;;;0.60;0.40;;;;;;;17.11;48.16;94313.59;4944333;29;20031;-86
2022/09/18 07:06:09;;;;;;;2.78;0.38;;;;;;;17.34;37.45;94316.13;4944412;29;20401;-85
2022/09/18 07:08:34;;;;;;;0.70;0.20;;;;;;;17.56;48.04;94320.47;4944012;29;20121;-85
2022/09/18 07:11:01;;;;;;;0.47;0.43;;;;;;;16.77;46.16;94321.13;4943757;29;20037;-86
2022/09/18 07:13:31;;;;;;;0.88;0.40;;;;;;;17.23;47.03;94326.25;4959527;29;20062;-86
2022/09/18 07:15:58;;;;;;;0.38;0.20;;;;;;;17.39;46.49;94323.91;4943654;29;20038;-86
2022/09/18 07:18:23;;;;;;;2.75;0.30;;;;;;;17.16;45.99;94323.25;4928305;29;20039;-87
2022/09/18 07:20:49;;;;;;;3.13;0.30;;;;;;;17.56;42.98;94322.34;4943794;29;20397;-87
2022/09/18 07:23:15;;;;;;;2.15;0.35;;;;;;;17.20;39.39;94321.56;4943711;29;20071;-86
2022/09/18 07:25:40;;;;;;;0.57;0.30;;;;;;;17.34;40.19;94327.47;4927803;29;20068;-87
2022/09/18 07:28:07;;;;;;;0.52;0.30;;;;;;;17.61;38.88;94330.16;4961121;29;20118;-85
2022/09/18 07:30:34;;;;;;;10.93;0.50;;;;;;;17.97;38.34;94336.19;4943242;29;20038;-86
2022/09/18 07:33:01;;;;;;;0.50;0.22;;;;;;;18.13;38.84;94337.25;4943296;29;20043;-86
2022/09/18 07:35:27;;;;;;;1.63;0.30;;;;;;;17.55;37.58;94344.63;4943395;29;20039;-87
2022/09/18 07:38:06;;;;;;;0.82;0.38;;;;;;;17.85;38.97;94334.94;4943777;29;20353;-86
2022/09/18 07:40:32;;;;;;;0.30;0.30;;;;;;;17.73;40.74;94340.91;4960285;29;20031;-87
2022/09/18 07:42:59;;;;;;;1.25;0.68;;;;;;;18.03;40.06;94340.25;4943391;29;20028;-86
2022/09/18 07:45:24;;;;;;;2.05;0.20;;;;;;;17.97;53.52;94341.50;4959464;28;20027;-86
2022/09/18 07:47:50;;;;;;;0.60;0.40;;;;;;;18.07;50.06;94349.13;4960194;29;20361;-85
2022/09/18 07:50:15;;;;;;;0.77;0.30;;;;;;;17.84;49.86;94345.84;4951586;28;20053;-86
2022/09/18 07:52:52;;;;;;;0.38;0.30;;;;;;;18.26;45.82;94343.47;4978636;28;20073;-87
2022/09/18 07:55:19;;;;;;;4.55;0.50;;;;;;;18.47;52.04;94353.41;4970547;28;20027;-86
2022/09/18 07:57:47;;;;;;;0.50;0.43;;;;;;;18.54;54.83;94360.88;4943332;29;20098;-87
2022/09/18 08:00:14;;;;;;;6.97;0.52;;;;;;;18.65;55.31;94359.44;4926829;29;20043;-86
2022/09/18 08:02:40;;;;;;;0.80;0.52;;;;;;;18.55;40.50;94355.22;4942828;29;20126;-86
2022/09/18 08:05:06;;;;;;;0.85;0.40;;;;;;;18.70;43.78;94361.09;4960169;29;20043;-87
2022/09/18 08:07:31;;;;;;;2.13;0.30;;;;;;;18.93;40.31;94357.09;4943527;29;20050;-87
2022/09/18 08:09:57;;;;;;;0.30;0.10;;;;;;;18.91;45.69;94366.47;4927559;29;20031;-87
2022/09/18 08:12:23;;;;;;;0.88;0.30;;;;;;;18.72;40.98;94374.81;4958509;28;20047;-88
2022/09/18 08:14:48;;;;;;;3.70;0.50;;;;;;;19.12;53.77;94368.44;4966680;28;20035;-88
2022/09/18 08:17:14;;;;;;;0.30;0.30;;;;;;;18.43;43.19;94368.38;4961897;28;20030;-88
2022/09/18 08:19:39;;;;;;;0.60;0.35;;;;;;;18.65;39.41;94372.69;4961518;28;20041;-88
2022/09/18 08:22:04;;;;;;;0.55;0.38;;;;;;;19.12;39.50;94377.16;4979342;28;20384;-87
2022/09/18 08:24:30;;;;;;;1.30;0.30;;;;;;;19.00;39.81;94375.19;4979373;28;20062;-87
2022/09/18 08:27:02;;;;;;;0.70;0.40;;;;;;;19.34;35.90;94376.09;4961878;28;20113;-87
2022/09/18 08:29:28;;;;;;;0.35;0.20;;;;;;;19.05;35.88;94377.66;4962879;28;20027;-88
2022/09/18 08:31:54;;;;;;;0.40;0.20;;;;;;;18.97;35.37;94370.50;4945664;28;20337;-88
2022/09/18 08:34:19;;;;;;;3.35;0.40;;;;;;;19.42;34.59;94385.09;4971707;28;20061;-89
2022/09/18 08:36:44;;;;;;;0.77;0.40;;;;;;;19.44;35.21;94387.44;4945745;28;20031;-88
2022/09/18 08:39:10;;;;;;;0.63;0.45;;;;;;;19.52;35.44;94389.28;4945876;28;20030;-89
2022/09/18 08:42:00;;;;;;;0.40;0.30;;;;;;;19.54;34.23;94376.44;4945816;28;20030;-90
2022/09/18 08:44:38;;;;;;;0.22;0.22;;;;;;;19.25;34.81;94378.03;4961766;28;20057;-90
2022/09/18 08:47:09;;;;;;;0.55;0.38;;;;;;;19.52;35.49;94383.16;4946440;28;20038;-89
2022/09/18 08:49:52;;;;;;;0.50;0.40;;;;;;;19.85;41.59;94379.78;4961323;28;20093;-90
2022/09/18 08:52:21;;;;;;;0.65;0.30;;;;;;;19.73;40.01;94376.00;4945658;28;20033;-90
2022/09/18 08:55:00;;;;;;;1.40;0.63;;;;;;;19.66;34.21;94393.56;4945435;28;20033;-91
2022/09/18 08:57:31;;;;;;;0.65;0.40;;;;;;;19.16;35.27;94387.94;4961347;28;20030;-92
2022/09/18 09:00:22;;;;;;;0.73;0.32;;;;;;;19.39;36.85;94400.94;4961450;28;20080;-90
2022/09/18 09:02:50;;;;;;;0.38;0.38;;;;;;;19.54;36.85;94387.06;4945467;28;20081;-89
2022/09/18 09:05:25;;;;;;;0.60;0.30;;;;;;;19.55;34.93;94396.59;4961869;28;20042;-90
2022/09/18 09:07:58;;;;;;;1.25;0.50;;;;;;;19.71;33.81;94390.69;4960963;28;20088;-90
2022/09/18 09:10:38;;;;;;;1.25;0.40;;;;;;;19.65;33.99;94403.41;4944954;28;20352;-90
2022/09/18 09:13:41;;;;;;;1.40;0.40;;;;;;;19.93;36.18;94397.59;4960969;28;20034;-90
2022/09/18 09:16:21;;;;;;;0.47;0.38;;;;;;;19.83;36.31;94395.28;4961008;28;20137;-90
2022/09/18 09:19:07;;;;;;;0.20;0.20;;;;;;;19.89;34.10;94404.63;4961549;28;20045;-90
2022/09/18 09:22:12;;;;;;;1.52;0.30;;;;;;;20.31;32.05;94390.50;4961250;28;20038;-89
2022/09/18 09:24:44;;;;;;;1.35;0.40;;;;;;;20.28;39.12;94386.59;4924467;29;20046;-90
2022/09/18 09:27:18;;;;;;;0.95;0.50;;;;;;;20.43;33.86;94379.91;4941960;29;20035;-88
2022/09/18 09:29:44;;;;;;;0.32;0.30;;;;;;;20.80;35.27;94386.34;4925887;29;20122;-88
2022/09/18 09:32:36;;;;;;;0.63;0.38;;;;;;;20.81;35.90;94385.31;4926203;29;20050;-87
2022/09/18 09:35:24;;;;;;;0.57;0.40;;;;;;;20.40;33.05;94393.88;4915726;29;20430;-89
2022/09/18 09:37:50;;;;;;;0.45;0.40;;;;;;;20.25;33.44;94386.50;4942212;28;20034;-88
2022/09/18 09:40:20;;;;;;;0.45;0.30;;;;;;;20.29;37.59;94388.16;4977343;28;20066;-88
2022/09/18 09:43:13;;;;;;;0.32;0.20;;;;;;;20.85;34.70;94392.28;4977632;28;20404;-89
2022/09/18 09:45:45;;;;;;;0.60;0.40;;;;;;;20.96;32.12;94389.19;4980178;28;20344;-87
2022/09/18 09:48:40;;;;;;;1.27;0.50;;;;;;;20.30;37.25;94389.75;4980335;28;20034;-90
2022/09/18 09:51:34;;;;;;;0.47;0.30;;;;;;;20.65;35.37;94399.22;4909248;29;20093;-86
2022/09/18 09:54:00;;;;;;;1.35;0.50;;;;;;;20.92;35.22;94397.06;4941335;29;20097;-86
2022/09/18 09:56:29;;;;;;;3.60;0.50;;;;;;;20.99;38.87;94393.84;4925854;29;20125;-87
2022/09/18 09:59:22;;;;;;;0.93;0.40;;;;;;;20.36;34.06;94387.63;4959414;28;20042;-87
2022/09/18 10:01:58;;;;;;;1.38;0.50;;;;;;;20.33;31.59;94393.59;4970207;28;20042;-88
2022/09/18 10:04:52;;;;;;;3.58;0.50;;;;;;;20.41;33.98;94392.75;4977825;28;20061;-86
2022/09/18 10:07:22;;;;;;;0.88;0.40;;;;;;;20.43;35.31;94395.06;4960286;28;20424;-86
2022/09/18 10:09:53;;;;;;;0.63;0.43;;;;;;;20.62;33.90;94402.53;4960246;28;20451;-86
2022/09/18 10:12:25;;;;;;;0.73;0.50;;;;;;;21.03;32.32;94400.84;4944665;28;20066;-87
2022/09/18 10:14:52;;;;;;;0.88;0.50;;;;;;;21.60;32.98;94392.22;4977462;28;20062;-86
2022/09/18 10:17:18;;;;;;;0.88;0.40;;;;;;;21.18;31.65;94395.94;4960151;28;20031;-86
2022/09/18 10:19:44;;;;;;;0.93;0.57;;;;;;;21.21;32.06;94399.84;4959952;28;20031;-86
2022/09/18 10:22:12;;;;;;;0.88;0.50;;;;;;;20.98;35.73;94410.94;4977328;28;20039;-87
2022/09/18 10:24:37;;;;;;;0.98;0.52;;;;;;;21.48;32.77;94398.34;4944549;28;20030;-85
2022/09/18 10:27:13;;;;;;;1.75;0.50;;;;;;;21.97;37.06;94405.47;4960031;28;20035;-89
2022/09/18 10:29:39;;;;;;;1.08;0.50;;;;;;;21.84;37.20;94401.28;4959043;28;20387;-87
2022/09/18 10:32:05;;;;;;;1.20;0.40;;;;;;;21.55;35.74;94393.25;4960222;28;20027;-86
2022/09/18 10:34:41;;;;;;;0.68;0.30;;;;;;;21.19;30.13;94408.16;4960188;28;20029;-87
2022/09/18 10:37:35;;;;;;;0.60;0.45;;;;;;;21.12;32.34;94402.63;4980186;28;20022;-87
2022/09/18 10:40:01;;;;;;;4.25;0.38;;;;;;;20.93;32.03;94408.50;4963660;28;20030;-85
2022/09/18 10:42:35;;;;;;;0.75;0.60;;;;;;;21.14;32.56;94413.72;4963403;28;20109;-87
2022/09/18 10:45:06;;;;;;;0.47;0.35;;;;;;;21.59;32.57;94403.97;4947465;28;20052;-86
2022/09/18 10:47:34;;;;;;;0.70;0.55;;;;;;;21.12;32.87;94402.63;4963376;28;20023;-87
2022/09/18 10:50:06;;;;;;;1.05;0.60;;;;;;;21.12;30.95;94403.38;4963758;28;20045;-87
2022/09/18 10:52:42;;;;;;;1.60;0.55;;;;;;;21.49;29.92;94396.47;4963270;28;20085;-87
2022/09/18 10:55:26;;;;;;;2.92;0.50;;;;;;;21.31;30.67;94408.16;4963591;28;20053;-87
2022/09/18 10:57:58;;;;;;;0.52;0.40;;;;;;;21.60;32.48;94392.22;4963553;28;20029;-87
2022/09/18 11:00:24;;;;;;;0.57;0.35;;;;;;;22.14;36.02;94395.63;4963417;28;20062;-86
2022/09/18 11:02:57;;;;;;;0.73;0.50;;;;;;;22.00;32.35;94390.69;4963244;28;20445;-85
2022/09/18 11:05:36;;;;;;;0.80;0.40;;;;;;;21.92;32.69;94402.25;4963122;28;20030;-88
2022/09/18 11:08:23;;;;;;;0.63;0.40;;;;;;;21.56;32.06;94386.00;4963386;28;20034;-86
2022/09/18 11:10:54;;;;;;;0.57;0.40;;;;;;;21.28;33.09;94379.50;4963317;28;20022;-87
2022/09/18 11:13:23;;;;;;;1.73;0.50;;;;;;;21.86;32.22;94385.72;4947572;28;20397;-86
2022/09/18 11:15:55;;;;;;;0.63;0.52;;;;;;;21.75;31.50;94377.44;4963518;28;20093;-88
2022/09/18 11:18:22;;;;;;;0.70;0.50;;;;;;;22.24;33.56;94381.78;4963756;28;20337;-86
2022/09/18 11:20:49;;;;;;;0.30;0.25;;;;;;;21.45;29.87;94386.50;4962892;28;20027;-86
2022/09/18 11:23:35;;;;;;;2.05;0.40;;;;;;;21.55;32.18;94377.25;4963115;28;20405;-86
2022/09/18 11:26:26;;;;;;;0.77;0.50;;;;;;;21.73;34.82;94382.34;4979501;28;20053;-85
2022/09/18 11:29:16;;;;;;;0.77;0.50;;;;;;;22.49;30.86;94384.38;4963026;28;20039;-86
2022/09/18 11:31:46;;;;;;;0.88;0.60;;;;;;;22.30;29.58;94385.00;4962651;28;20027;-87
2022/09/18 11:34:34;;;;;;;0.77;0.43;;;;;;;21.96;32.33;94382.59;4947095;28;20031;-86
2022/09/18 11:37:05;;;;;;;0.88;0.50;;;;;;;22.38;32.89;94388.63;4962641;28;20326;-86
2022/09/18 11:39:36;;;;;;;0.32;0.30;;;;;;;22.40;30.37;94381.81;4962724;28;20070;-85
2022/09/18 11:42:07;;;;;;;0.73;0.43;;;;;;;22.49;28.24;94375.56;4962767;28;20085;-86
2022/09/18 11:44:33;;;;;;;0.57;0.43;;;;;;;22.06;31.28;94373.31;4962700;28;20110;-87
2022/09/18 11:47:17;;;;;;;0.57;0.40;;;;;;;22.66;31.83;94371.78;4962090;28;20067;-86
2022/09/18 11:50:03;;;;;;;1.67;0.40;;;;;;;22.53;31.41;94371.13;4962329;28;20340;-86
2022/09/18 11:52:30;;;;;;;0.68;0.50;;;;;;;21.65;29.87;94372.53;4962400;28;20429;-87